sensor_id;sensor_type;location;lat;lon;timestamp;temperature;humidity
66144;SHT31;52947;50.842;6.084;2024-03-08T00:00:14;3.09;83.90
66144;SHT31;52947;50.842;6.084;2024-03-08T00:02:46;3.05;84.90
66144;SHT31;52947;50.842;6.084;2024-03-08T00:05:15;2.95;84.62
66144;SHT31;52947;50.842;6.084;2024-03-08T00:07:43;2.98;85.22
66144;SHT31;52947;50.842;6.084;2024-03-08T00:10:12;3.03;84.44
66144;SHT31;52947;50.842;6.084;2024-03-08T00:12:43;2.93;84.98
66144;SHT31;52947;50.842;6.084;2024-03-08T00:15:14;3.04;85.13
66144;SHT31;52947;50.842;6.084;2024-03-08T00:17:44;2.93;84.37
66144;SHT31;52947;50.842;6.084;2024-03-08T00:20:14;2.98;85.85
66144;SHT31;52947;50.842;6.084;2024-03-08T00:22:46;2.95;84.95
66144;SHT31;52947;50.842;6.084;2024-03-08T00:25:14;2.84;84.80
66144;SHT31;52947;50.842;6.084;2024-03-08T00:27:43;2.77;84.97
66144;SHT31;52947;50.842;6.084;2024-03-08T00:30:12;2.68;85.43
66144;SHT31;52947;50.842;6.084;2024-03-08T00:32:41;2.74;85.25
66144;SHT31;52947;50.842;6.084;2024-03-08T00:35:09;2.60;85.06
66144;SHT31;52947;50.842;6.084;2024-03-08T00:37:39;2.74;86.00
66144;SHT31;52947;50.842;6.084;2024-03-08T00:40:09;3.25;89.78
66144;SHT31;52947;50.842;6.084;2024-03-08T00:42:37;3.85;87.66
66144;SHT31;52947;50.842;6.084;2024-03-08T00:45:07;4.28;85.35
66144;SHT31;52947;50.842;6.084;2024-03-08T00:47:38;4.22;84.83
66144;SHT31;52947;50.842;6.084;2024-03-08T00:50:09;4.93;85.13
66144;SHT31;52947;50.842;6.084;2024-03-08T00:52:37;4.11;81.37
66144;SHT31;52947;50.842;6.084;2024-03-08T00:55:06;3.60;81.37
66144;SHT31;52947;50.842;6.084;2024-03-08T00:57:34;3.16;82.47
66144;SHT31;52947;50.842;6.084;2024-03-08T01:00:04;2.87;83.46
66144;SHT31;52947;50.842;6.084;2024-03-08T01:02:36;2.65;84.22
66144;SHT31;52947;50.842;6.084;2024-03-08T01:05:06;2.57;84.67
66144;SHT31;52947;50.842;6.084;2024-03-08T01:07:34;2.42;85.14
66144;SHT31;52947;50.842;6.084;2024-03-08T01:10:03;2.40;85.26
66144;SHT31;52947;50.842;6.084;2024-03-08T01:12:31;2.42;85.16
66144;SHT31;52947;50.842;6.084;2024-03-08T01:14:59;2.40;85.22
66144;SHT31;52947;50.842;6.084;2024-03-08T01:17:27;2.33;85.58
66144;SHT31;52947;50.842;6.084;2024-03-08T01:19:55;2.33;85.50
66144;SHT31;52947;50.842;6.084;2024-03-08T01:22:25;2.22;85.44
66144;SHT31;52947;50.842;6.084;2024-03-08T01:24:54;2.19;85.95
66144;SHT31;52947;50.842;6.084;2024-03-08T01:27:23;2.18;86.01
66144;SHT31;52947;50.842;6.084;2024-03-08T01:29:51;2.21;85.62
66144;SHT31;52947;50.842;6.084;2024-03-08T01:32:19;2.18;85.83
66144;SHT31;52947;50.842;6.084;2024-03-08T01:34:49;2.15;85.94
66144;SHT31;52947;50.842;6.084;2024-03-08T01:37:17;2.12;85.89
66144;SHT31;52947;50.842;6.084;2024-03-08T01:39:47;2.05;86.08
66144;SHT31;52947;50.842;6.084;2024-03-08T01:42:15;1.95;86.57
66144;SHT31;52947;50.842;6.084;2024-03-08T01:44:44;1.98;86.56
66144;SHT31;52947;50.842;6.084;2024-03-08T01:47:12;1.89;86.86
66144;SHT31;52947;50.842;6.084;2024-03-08T01:49:40;1.89;86.74
66144;SHT31;52947;50.842;6.084;2024-03-08T01:52:09;1.86;86.85
66144;SHT31;52947;50.842;6.084;2024-03-08T01:54:37;1.81;86.90
66144;SHT31;52947;50.842;6.084;2024-03-08T01:57:09;1.82;87.04
66144;SHT31;52947;50.842;6.084;2024-03-08T01:59:37;1.75;87.08
66144;SHT31;52947;50.842;6.084;2024-03-08T02:02:06;1.71;87.04
66144;SHT31;52947;50.842;6.084;2024-03-08T02:04:36;1.65;87.40
66144;SHT31;52947;50.842;6.084;2024-03-08T02:07:05;1.71;87.31
66144;SHT31;52947;50.842;6.084;2024-03-08T02:09:37;1.70;87.18
66144;SHT31;52947;50.842;6.084;2024-03-08T02:12:06;1.67;87.34
66144;SHT31;52947;50.842;6.084;2024-03-08T02:14:39;1.68;87.19
66144;SHT31;52947;50.842;6.084;2024-03-08T02:17:07;1.71;87.05
66144;SHT31;52947;50.842;6.084;2024-03-08T02:19:35;1.65;87.30
66144;SHT31;52947;50.842;6.084;2024-03-08T02:22:05;1.46;87.64
66144;SHT31;52947;50.842;6.084;2024-03-08T02:24:34;1.46;87.96
66144;SHT31;52947;50.842;6.084;2024-03-08T02:27:02;1.51;87.98
66144;SHT31;52947;50.842;6.084;2024-03-08T02:29:31;1.52;87.74
66144;SHT31;52947;50.842;6.084;2024-03-08T02:32:00;1.52;87.85
66144;SHT31;52947;50.842;6.084;2024-03-08T02:34:29;1.48;87.87
66144;SHT31;52947;50.842;6.084;2024-03-08T02:36:59;1.46;87.96
66144;SHT31;52947;50.842;6.084;2024-03-08T02:39:28;1.48;87.90
66144;SHT31;52947;50.842;6.084;2024-03-08T02:41:56;1.39;88.22
66144;SHT31;52947;50.842;6.084;2024-03-08T02:44:24;1.40;88.17
66144;SHT31;52947;50.842;6.084;2024-03-08T02:46:52;1.39;88.16
66144;SHT31;52947;50.842;6.084;2024-03-08T02:49:22;1.31;88.52
66144;SHT31;52947;50.842;6.084;2024-03-08T02:51:50;1.34;88.55
66144;SHT31;52947;50.842;6.084;2024-03-08T02:54:18;1.26;88.60
66144;SHT31;52947;50.842;6.084;2024-03-08T02:56:47;1.29;88.65
66144;SHT31;52947;50.842;6.084;2024-03-08T02:59:17;1.24;88.76
66144;SHT31;52947;50.842;6.084;2024-03-08T03:01:45;1.13;88.97
66144;SHT31;52947;50.842;6.084;2024-03-08T03:04:14;1.10;89.22
66144;SHT31;52947;50.842;6.084;2024-03-08T03:06:41;1.12;89.28
66144;SHT31;52947;50.842;6.084;2024-03-08T03:09:09;1.04;89.34
66144;SHT31;52947;50.842;6.084;2024-03-08T03:11:38;1.03;89.41
66144;SHT31;52947;50.842;6.084;2024-03-08T03:14:08;1.00;89.46
66144;SHT31;52947;50.842;6.084;2024-03-08T03:16:36;1.00;89.71
66144;SHT31;52947;50.842;6.084;2024-03-08T03:19:04;1.03;89.54
66144;SHT31;52947;50.842;6.084;2024-03-08T03:21:32;0.96;89.52
66144;SHT31;52947;50.842;6.084;2024-03-08T03:24:03;0.92;90.06
66144;SHT31;52947;50.842;6.084;2024-03-08T03:26:37;0.89;90.01
66144;SHT31;52947;50.842;6.084;2024-03-08T03:29:09;0.85;90.19
66144;SHT31;52947;50.842;6.084;2024-03-08T03:31:37;0.86;90.10
66144;SHT31;52947;50.842;6.084;2024-03-08T03:34:06;0.82;90.09
66144;SHT31;52947;50.842;6.084;2024-03-08T03:36:35;0.82;90.08
66144;SHT31;52947;50.842;6.084;2024-03-08T03:39:05;0.76;90.32
66144;SHT31;52947;50.842;6.084;2024-03-08T03:41:37;0.73;90.45
66144;SHT31;52947;50.842;6.084;2024-03-08T03:44:05;0.78;90.34
66144;SHT31;52947;50.842;6.084;2024-03-08T03:46:35;0.76;90.47
66144;SHT31;52947;50.842;6.084;2024-03-08T03:49:03;0.79;90.41
66144;SHT31;52947;50.842;6.084;2024-03-08T03:51:31;0.72;90.69
66144;SHT31;52947;50.842;6.084;2024-03-08T03:53:59;0.68;90.63
66144;SHT31;52947;50.842;6.084;2024-03-08T03:56:30;0.68;90.91
66144;SHT31;52947;50.842;6.084;2024-03-08T03:58:58;0.65;90.84
66144;SHT31;52947;50.842;6.084;2024-03-08T04:01:26;0.62;90.85
66144;SHT31;52947;50.842;6.084;2024-03-08T04:03:55;0.62;91.34
66144;SHT31;52947;50.842;6.084;2024-03-08T04:06:26;0.47;91.16
66144;SHT31;52947;50.842;6.084;2024-03-08T04:08:54;0.64;91.01
66144;SHT31;52947;50.842;6.084;2024-03-08T04:11:22;0.59;91.09
66144;SHT31;52947;50.842;6.084;2024-03-08T04:13:50;0.64;90.92
66144;SHT31;52947;50.842;6.084;2024-03-08T04:16:19;0.76;90.75
66144;SHT31;52947;50.842;6.084;2024-03-08T04:18:47;0.64;90.90
66144;SHT31;52947;50.842;6.084;2024-03-08T04:21:17;0.64;90.52
66144;SHT31;52947;50.842;6.084;2024-03-08T04:23:45;0.65;90.65
66144;SHT31;52947;50.842;6.084;2024-03-08T04:26:14;0.64;90.60
66144;SHT31;52947;50.842;6.084;2024-03-08T04:28:45;0.68;90.60
66144;SHT31;52947;50.842;6.084;2024-03-08T04:31:13;0.55;90.86
66144;SHT31;52947;50.842;6.084;2024-03-08T04:33:42;0.62;90.64
66144;SHT31;52947;50.842;6.084;2024-03-08T04:36:11;0.72;90.84
66144;SHT31;52947;50.842;6.084;2024-03-08T04:38:42;0.62;90.75
66144;SHT31;52947;50.842;6.084;2024-03-08T04:41:10;0.62;90.89
66144;SHT31;52947;50.842;6.084;2024-03-08T04:43:38;0.65;90.79
66144;SHT31;52947;50.842;6.084;2024-03-08T04:46:06;0.61;91.00
66144;SHT31;52947;50.842;6.084;2024-03-08T04:48:35;0.68;90.71
66144;SHT31;52947;50.842;6.084;2024-03-08T04:51:04;0.62;90.87
66144;SHT31;52947;50.842;6.084;2024-03-08T04:53:32;0.65;90.83
66144;SHT31;52947;50.842;6.084;2024-03-08T04:56:03;0.75;90.55
66144;SHT31;52947;50.842;6.084;2024-03-08T04:58:33;0.72;90.68
66144;SHT31;52947;50.842;6.084;2024-03-08T05:01:03;0.72;90.51
66144;SHT31;52947;50.842;6.084;2024-03-08T05:03:31;0.69;90.62
66144;SHT31;52947;50.842;6.084;2024-03-08T05:05:59;0.72;90.60
66144;SHT31;52947;50.842;6.084;2024-03-08T05:08:28;0.59;90.67
66144;SHT31;52947;50.842;6.084;2024-03-08T05:10:56;0.64;90.75
66144;SHT31;52947;50.842;6.084;2024-03-08T05:13:25;0.66;90.58
66144;SHT31;52947;50.842;6.084;2024-03-08T05:15:53;0.65;90.65
66144;SHT31;52947;50.842;6.084;2024-03-08T05:18:25;0.66;90.67
66144;SHT31;52947;50.842;6.084;2024-03-08T05:20:55;0.64;90.59
66144;SHT31;52947;50.842;6.084;2024-03-08T05:23:23;0.68;90.54
66144;SHT31;52947;50.842;6.084;2024-03-08T05:25:51;0.70;90.40
66144;SHT31;52947;50.842;6.084;2024-03-08T05:28:19;0.75;90.49
66144;SHT31;52947;50.842;6.084;2024-03-08T05:30:48;0.76;90.42
66144;SHT31;52947;50.842;6.084;2024-03-08T05:33:17;0.72;90.33
66144;SHT31;52947;50.842;6.084;2024-03-08T05:36:05;0.69;90.36
66144;SHT31;52947;50.842;6.084;2024-03-08T05:38:33;0.58;90.78
66144;SHT31;52947;50.842;6.084;2024-03-08T05:41:01;0.57;90.87
66144;SHT31;52947;50.842;6.084;2024-03-08T05:43:29;0.59;90.92
66144;SHT31;52947;50.842;6.084;2024-03-08T05:45:58;0.61;90.85
66144;SHT31;52947;50.842;6.084;2024-03-08T05:48:26;0.61;90.81
66144;SHT31;52947;50.842;6.084;2024-03-08T05:50:54;0.58;90.82
66144;SHT31;52947;50.842;6.084;2024-03-08T05:53:23;0.65;90.68
66144;SHT31;52947;50.842;6.084;2024-03-08T05:55:51;0.61;90.61
66144;SHT31;52947;50.842;6.084;2024-03-08T05:58:20;0.66;90.69
66144;SHT31;52947;50.842;6.084;2024-03-08T06:00:48;0.59;90.80
66144;SHT31;52947;50.842;6.084;2024-03-08T06:03:20;0.57;90.89
66144;SHT31;52947;50.842;6.084;2024-03-08T06:05:48;0.55;90.90
66144;SHT31;52947;50.842;6.084;2024-03-08T06:08:16;0.61;90.67
66144;SHT31;52947;50.842;6.084;2024-03-08T06:10:45;0.62;90.66
66144;SHT31;52947;50.842;6.084;2024-03-08T06:13:17;0.65;90.58
66144;SHT31;52947;50.842;6.084;2024-03-08T06:15:45;0.68;90.43
66144;SHT31;52947;50.842;6.084;2024-03-08T06:18:13;0.69;90.41
66144;SHT31;52947;50.842;6.084;2024-03-08T06:20:43;0.70;90.38
66144;SHT31;52947;50.842;6.084;2024-03-08T06:23:13;0.79;90.02
66144;SHT31;52947;50.842;6.084;2024-03-08T06:25:44;0.79;89.91
66144;SHT31;52947;50.842;6.084;2024-03-08T06:28:12;0.83;89.92
66144;SHT31;52947;50.842;6.084;2024-03-08T06:30:41;1.01;89.33
66144;SHT31;52947;50.842;6.084;2024-03-08T06:33:09;1.36;88.38
66144;SHT31;52947;50.842;6.084;2024-03-08T06:35:38;1.62;87.39
66144;SHT31;52947;50.842;6.084;2024-03-08T06:38:08;1.88;86.54
66144;SHT31;52947;50.842;6.084;2024-03-08T06:40:36;2.12;85.81
66144;SHT31;52947;50.842;6.084;2024-03-08T06:43:04;2.33;84.83
66144;SHT31;52947;50.842;6.084;2024-03-08T06:45:33;2.71;83.93
66144;SHT31;52947;50.842;6.084;2024-03-08T06:48:04;2.81;83.58
66144;SHT31;52947;50.842;6.084;2024-03-08T06:50:36;2.94;83.05
66144;SHT31;52947;50.842;6.084;2024-03-08T06:53:04;3.45;84.30
66144;SHT31;52947;50.842;6.084;2024-03-08T06:55:34;4.21;84.19
66144;SHT31;52947;50.842;6.084;2024-03-08T06:58:02;4.03;80.41
66144;SHT31;52947;50.842;6.084;2024-03-08T07:00:30;4.61;80.69
66144;SHT31;52947;50.842;6.084;2024-03-08T07:02:58;5.54;80.13
66144;SHT31;52947;50.842;6.084;2024-03-08T07:05:27;5.94;76.75
66144;SHT31;52947;50.842;6.084;2024-03-08T07:07:58;6.15;76.18
66144;SHT31;52947;50.842;6.084;2024-03-08T07:10:26;6.28;73.08
66144;SHT31;52947;50.842;6.084;2024-03-08T07:12:56;5.64;75.69
66144;SHT31;52947;50.842;6.084;2024-03-08T07:15:24;5.48;75.23
66144;SHT31;52947;50.842;6.084;2024-03-08T07:17:52;6.05;74.53
66144;SHT31;52947;50.842;6.084;2024-03-08T07:20:21;5.61;74.90
66144;SHT31;52947;50.842;6.084;2024-03-08T07:22:49;5.78;75.19
66144;SHT31;52947;50.842;6.084;2024-03-08T07:25:18;5.74;74.56
66144;SHT31;52947;50.842;6.084;2024-03-08T07:27:50;6.01;73.74
66144;SHT31;52947;50.842;6.084;2024-03-08T07:30:21;6.81;74.02
66144;SHT31;52947;50.842;6.084;2024-03-08T07:33:07;7.38;71.61
66144;SHT31;52947;50.842;6.084;2024-03-08T07:35:39;7.80;68.64
66144;SHT31;52947;50.842;6.084;2024-03-08T07:38:07;6.85;70.88
66144;SHT31;52947;50.842;6.084;2024-03-08T07:40:37;7.59;69.16
66144;SHT31;52947;50.842;6.084;2024-03-08T07:43:07;8.11;69.66
66144;SHT31;52947;50.842;6.084;2024-03-08T07:45:37;8.30;67.13
66144;SHT31;52947;50.842;6.084;2024-03-08T07:48:06;8.20;66.55
66144;SHT31;52947;50.842;6.084;2024-03-08T07:50:37;7.98;68.81
66144;SHT31;52947;50.842;6.084;2024-03-08T07:53:06;8.96;67.24
66144;SHT31;52947;50.842;6.084;2024-03-08T07:55:35;8.93;66.44
66144;SHT31;52947;50.842;6.084;2024-03-08T07:58:04;9.91;64.25
66144;SHT31;52947;50.842;6.084;2024-03-08T08:00:33;8.72;65.70
66144;SHT31;52947;50.842;6.084;2024-03-08T08:03:04;8.69;65.86
66144;SHT31;52947;50.842;6.084;2024-03-08T08:05:34;7.93;67.92
66144;SHT31;52947;50.842;6.084;2024-03-08T08:08:05;8.11;68.09
66144;SHT31;52947;50.842;6.084;2024-03-08T08:10:38;8.51;68.17
66144;SHT31;52947;50.842;6.084;2024-03-08T08:13:06;8.21;67.64
66144;SHT31;52947;50.842;6.084;2024-03-08T08:15:34;8.40;68.39
66144;SHT31;52947;50.842;6.084;2024-03-08T08:18:04;7.82;68.97
66144;SHT31;52947;50.842;6.084;2024-03-08T08:20:33;8.48;67.17
66144;SHT31;52947;50.842;6.084;2024-03-08T08:23:02;9.33;66.42
66144;SHT31;52947;50.842;6.084;2024-03-08T08:25:30;7.97;68.22
66144;SHT31;52947;50.842;6.084;2024-03-08T08:28:01;8.96;67.31
66144;SHT31;52947;50.842;6.084;2024-03-08T08:30:31;9.15;66.12
66144;SHT31;52947;50.842;6.084;2024-03-08T08:33:00;9.27;66.00
66144;SHT31;52947;50.842;6.084;2024-03-08T08:35:31;8.65;66.82
66144;SHT31;52947;50.842;6.084;2024-03-08T08:37:59;9.17;66.85
66144;SHT31;52947;50.842;6.084;2024-03-08T08:40:30;10.20;64.13
66144;SHT31;52947;50.842;6.084;2024-03-08T08:42:59;9.84;63.47
66144;SHT31;52947;50.842;6.084;2024-03-08T08:45:27;10.43;62.88
66144;SHT31;52947;50.842;6.084;2024-03-08T08:47:55;10.33;62.72
66144;SHT31;52947;50.842;6.084;2024-03-08T08:50:23;11.17;61.36
66144;SHT31;52947;50.842;6.084;2024-03-08T08:52:52;11.11;60.86
66144;SHT31;52947;50.842;6.084;2024-03-08T08:55:21;11.45;61.61
66144;SHT31;52947;50.842;6.084;2024-03-08T08:57:53;11.04;62.89
66144;SHT31;52947;50.842;6.084;2024-03-08T09:00:23;10.11;63.61
66144;SHT31;52947;50.842;6.084;2024-03-08T09:02:55;11.22;61.50
66144;SHT31;52947;50.842;6.084;2024-03-08T09:05:25;11.15;61.62
66144;SHT31;52947;50.842;6.084;2024-03-08T09:07:54;11.34;61.77
66144;SHT31;52947;50.842;6.084;2024-03-08T09:10:23;11.10;62.30
66144;SHT31;52947;50.842;6.084;2024-03-08T09:12:56;11.18;61.70
66144;SHT31;52947;50.842;6.084;2024-03-08T09:15:26;10.66;61.54
66144;SHT31;52947;50.842;6.084;2024-03-08T09:17:56;11.04;61.70
66144;SHT31;52947;50.842;6.084;2024-03-08T09:20:24;10.96;61.15
66144;SHT31;52947;50.842;6.084;2024-03-08T09:22:52;10.67;62.04
66144;SHT31;52947;50.842;6.084;2024-03-08T09:25:23;10.48;62.64
66144;SHT31;52947;50.842;6.084;2024-03-08T09:27:52;11.58;60.92
66144;SHT31;52947;50.842;6.084;2024-03-08T09:30:20;11.82;61.26
66144;SHT31;52947;50.842;6.084;2024-03-08T09:32:49;11.85;59.42
66144;SHT31;52947;50.842;6.084;2024-03-08T09:35:18;11.48;60.85
66144;SHT31;52947;50.842;6.084;2024-03-08T09:37:47;11.20;60.75
66144;SHT31;52947;50.842;6.084;2024-03-08T09:40:18;10.85;62.24
66144;SHT31;52947;50.842;6.084;2024-03-08T09:42:49;11.32;61.29
66144;SHT31;52947;50.842;6.084;2024-03-08T09:45:17;12.03;61.09
66144;SHT31;52947;50.842;6.084;2024-03-08T09:47:48;11.21;62.02
66144;SHT31;52947;50.842;6.084;2024-03-08T09:50:17;10.53;61.39
66144;SHT31;52947;50.842;6.084;2024-03-08T09:52:47;11.45;61.11
66144;SHT31;52947;50.842;6.084;2024-03-08T09:55:16;10.91;62.00
66144;SHT31;52947;50.842;6.084;2024-03-08T09:57:51;10.94;62.38
66144;SHT31;52947;50.842;6.084;2024-03-08T10:00:37;11.58;61.58
66144;SHT31;52947;50.842;6.084;2024-03-08T10:03:05;12.19;60.79
66144;SHT31;52947;50.842;6.084;2024-03-08T10:05:33;13.12;58.23
66144;SHT31;52947;50.842;6.084;2024-03-08T10:08:01;12.58;59.30
66144;SHT31;52947;50.842;6.084;2024-03-08T10:10:29;11.21;62.21
66144;SHT31;52947;50.842;6.084;2024-03-08T10:12:58;11.22;61.69
66144;SHT31;52947;50.842;6.084;2024-03-08T10:15:27;11.22;61.25
66144;SHT31;52947;50.842;6.084;2024-03-08T10:17:56;11.62;61.57
66144;SHT31;52947;50.842;6.084;2024-03-08T10:20:24;11.39;61.40
66144;SHT31;52947;50.842;6.084;2024-03-08T10:22:53;12.24;60.85
66144;SHT31;52947;50.842;6.084;2024-03-08T10:25:36;11.27;61.22
66144;SHT31;52947;50.842;6.084;2024-03-08T10:28:06;12.45;60.57
66144;SHT31;52947;50.842;6.084;2024-03-08T10:30:33;11.94;61.28
66144;SHT31;52947;50.842;6.084;2024-03-08T10:33:02;12.43;60.13
66144;SHT31;52947;50.842;6.084;2024-03-08T10:35:32;11.75;60.30
66144;SHT31;52947;50.842;6.084;2024-03-08T10:38:01;12.06;60.11
66144;SHT31;52947;50.842;6.084;2024-03-08T10:40:34;11.57;60.51
66144;SHT31;52947;50.842;6.084;2024-03-08T10:43:03;12.81;59.29
66144;SHT31;52947;50.842;6.084;2024-03-08T10:45:35;13.32;58.48
66144;SHT31;52947;50.842;6.084;2024-03-08T10:48:11;12.94;59.51
66144;SHT31;52947;50.842;6.084;2024-03-08T10:50:43;12.29;60.68
66144;SHT31;52947;50.842;6.084;2024-03-08T10:53:13;11.54;60.45
66144;SHT31;52947;50.842;6.084;2024-03-08T10:55:42;12.22;60.72
66144;SHT31;52947;50.842;6.084;2024-03-08T10:58:11;12.23;59.51
66144;SHT31;52947;50.842;6.084;2024-03-08T11:00:40;12.12;60.35
66144;SHT31;52947;50.842;6.084;2024-03-08T11:03:44;12.64;58.67
66144;SHT31;52947;50.842;6.084;2024-03-08T11:06:17;12.38;59.74
66144;SHT31;52947;50.842;6.084;2024-03-08T11:08:50;13.36;58.55
66144;SHT31;52947;50.842;6.084;2024-03-08T11:11:25;13.01;58.38
66144;SHT31;52947;50.842;6.084;2024-03-08T11:14:02;13.53;56.96
66144;SHT31;52947;50.842;6.084;2024-03-08T11:16:39;13.95;57.26
66144;SHT31;52947;50.842;6.084;2024-03-08T11:19:25;11.85;60.01
66144;SHT31;52947;50.842;6.084;2024-03-08T11:22:00;13.01;59.74
66144;SHT31;52947;50.842;6.084;2024-03-08T11:24:28;12.89;59.02
66144;SHT31;52947;50.842;6.084;2024-03-08T11:27:04;13.25;58.61
66144;SHT31;52947;50.842;6.084;2024-03-08T11:29:36;12.22;61.00
66144;SHT31;52947;50.842;6.084;2024-03-08T11:32:09;13.19;58.56
66144;SHT31;52947;50.842;6.084;2024-03-08T11:34:40;13.39;58.70
66144;SHT31;52947;50.842;6.084;2024-03-08T11:37:11;12.84;58.02
66144;SHT31;52947;50.842;6.084;2024-03-08T11:39:40;13.16;58.56
66144;SHT31;52947;50.842;6.084;2024-03-08T11:42:08;12.69;59.60
66144;SHT31;52947;50.842;6.084;2024-03-08T11:44:38;12.07;59.26
66144;SHT31;52947;50.842;6.084;2024-03-08T11:47:11;11.63;61.06
66144;SHT31;52947;50.842;6.084;2024-03-08T11:49:39;11.57;61.02
66144;SHT31;52947;50.842;6.084;2024-03-08T11:52:11;12.89;59.17
66144;SHT31;52947;50.842;6.084;2024-03-08T11:54:40;12.67;58.78
66144;SHT31;52947;50.842;6.084;2024-03-08T11:57:08;12.80;59.03
66144;SHT31;52947;50.842;6.084;2024-03-08T11:59:36;13.30;57.72
66144;SHT31;52947;50.842;6.084;2024-03-08T12:02:05;12.53;58.43
66144;SHT31;52947;50.842;6.084;2024-03-08T12:04:35;11.90;59.97
66144;SHT31;52947;50.842;6.084;2024-03-08T12:07:03;11.76;61.48
66144;SHT31;52947;50.842;6.084;2024-03-08T12:09:35;13.52;58.69
66144;SHT31;52947;50.842;6.084;2024-03-08T12:12:06;13.09;58.05
66144;SHT31;52947;50.842;6.084;2024-03-08T12:14:35;11.90;59.73
66144;SHT31;52947;50.842;6.084;2024-03-08T12:17:04;12.55;58.86
66144;SHT31;52947;50.842;6.084;2024-03-08T12:19:32;12.69;58.57
66144;SHT31;52947;50.842;6.084;2024-03-08T12:22:09;13.52;58.02
66144;SHT31;52947;50.842;6.084;2024-03-08T12:24:39;13.54;57.94
66144;SHT31;52947;50.842;6.084;2024-03-08T12:27:20;13.13;58.40
66144;SHT31;52947;50.842;6.084;2024-03-08T12:29:48;12.06;60.45
66144;SHT31;52947;50.842;6.084;2024-03-08T12:32:17;12.92;59.59
66144;SHT31;52947;50.842;6.084;2024-03-08T12:34:52;14.20;55.89
66144;SHT31;52947;50.842;6.084;2024-03-08T12:37:22;13.76;57.05
66144;SHT31;52947;50.842;6.084;2024-03-08T12:39:50;13.22;57.80
66144;SHT31;52947;50.842;6.084;2024-03-08T12:42:18;13.05;58.22
66144;SHT31;52947;50.842;6.084;2024-03-08T12:44:46;13.29;58.35
66144;SHT31;52947;50.842;6.084;2024-03-08T12:47:14;12.55;58.85
66144;SHT31;52947;50.842;6.084;2024-03-08T12:49:42;12.75;59.62
66144;SHT31;52947;50.842;6.084;2024-03-08T12:52:12;13.49;57.56
66144;SHT31;52947;50.842;6.084;2024-03-08T12:54:41;14.07;56.44
66144;SHT31;52947;50.842;6.084;2024-03-08T12:57:09;14.00;57.25
66144;SHT31;52947;50.842;6.084;2024-03-08T12:59:37;13.73;56.82
66144;SHT31;52947;50.842;6.084;2024-03-08T13:02:05;14.20;56.19
66144;SHT31;52947;50.842;6.084;2024-03-08T13:04:33;13.59;56.92
66144;SHT31;52947;50.842;6.084;2024-03-08T13:07:03;14.20;56.20
66144;SHT31;52947;50.842;6.084;2024-03-08T13:09:31;14.56;56.15
66144;SHT31;52947;50.842;6.084;2024-03-08T13:12:06;14.44;55.86
66144;SHT31;52947;50.842;6.084;2024-03-08T13:14:35;13.63;56.72
66144;SHT31;52947;50.842;6.084;2024-03-08T13:17:04;13.49;56.93
66144;SHT31;52947;50.842;6.084;2024-03-08T13:19:32;13.35;56.72
66144;SHT31;52947;50.842;6.084;2024-03-08T13:22:01;13.45;57.72
66144;SHT31;52947;50.842;6.084;2024-03-08T13:24:31;12.72;58.22
66144;SHT31;52947;50.842;6.084;2024-03-08T13:27:00;12.44;58.59
66144;SHT31;52947;50.842;6.084;2024-03-08T13:29:29;12.40;58.77
66144;SHT31;52947;50.842;6.084;2024-03-08T13:32:00;13.01;57.93
66144;SHT31;52947;50.842;6.084;2024-03-08T13:34:30;13.33;57.07
66144;SHT31;52947;50.842;6.084;2024-03-08T13:37:02;13.36;57.09
66144;SHT31;52947;50.842;6.084;2024-03-08T13:39:32;13.09;57.76
66144;SHT31;52947;50.842;6.084;2024-03-08T13:42:07;13.45;57.11
66144;SHT31;52947;50.842;6.084;2024-03-08T13:44:38;13.52;56.05
66144;SHT31;52947;50.842;6.084;2024-03-08T13:47:07;13.39;57.00
66144;SHT31;52947;50.842;6.084;2024-03-08T13:49:35;13.16;56.69
66144;SHT31;52947;50.842;6.084;2024-03-08T13:52:03;12.98;56.68
66144;SHT31;52947;50.842;6.084;2024-03-08T13:54:32;12.19;58.57
66144;SHT31;52947;50.842;6.084;2024-03-08T13:57:00;12.07;58.50
66144;SHT31;52947;50.842;6.084;2024-03-08T13:59:30;12.38;57.45
66144;SHT31;52947;50.842;6.084;2024-03-08T14:02:01;12.92;57.07
66144;SHT31;52947;50.842;6.084;2024-03-08T14:04:30;12.43;58.02
66144;SHT31;52947;50.842;6.084;2024-03-08T14:06:58;12.60;58.16
66144;SHT31;52947;50.842;6.084;2024-03-08T14:09:30;12.64;58.08
66144;SHT31;52947;50.842;6.084;2024-03-08T14:11:57;12.45;57.95
66144;SHT31;52947;50.842;6.084;2024-03-08T14:14:26;12.03;58.23
66144;SHT31;52947;50.842;6.084;2024-03-08T14:16:55;12.60;57.46
66144;SHT31;52947;50.842;6.084;2024-03-08T14:19:26;12.10;57.52
66144;SHT31;52947;50.842;6.084;2024-03-08T14:21:54;11.99;57.98
66144;SHT31;52947;50.842;6.084;2024-03-08T14:24:22;12.17;58.01
66144;SHT31;52947;50.842;6.084;2024-03-08T14:26:50;12.14;58.05
66144;SHT31;52947;50.842;6.084;2024-03-08T14:29:18;12.29;58.08
66144;SHT31;52947;50.842;6.084;2024-03-08T14:31:46;12.17;58.37
66144;SHT31;52947;50.842;6.084;2024-03-08T14:34:14;11.83;58.75
66144;SHT31;52947;50.842;6.084;2024-03-08T14:36:44;11.93;58.41
66144;SHT31;52947;50.842;6.084;2024-03-08T14:39:13;11.90;59.05
66144;SHT31;52947;50.842;6.084;2024-03-08T14:41:41;11.85;59.11
66144;SHT31;52947;50.842;6.084;2024-03-08T14:44:10;11.63;59.23
66144;SHT31;52947;50.842;6.084;2024-03-08T14:46:38;11.68;59.29
66144;SHT31;52947;50.842;6.084;2024-03-08T14:49:06;11.61;59.68
66144;SHT31;52947;50.842;6.084;2024-03-08T14:51:34;11.54;60.07
66144;SHT31;52947;50.842;6.084;2024-03-08T14:54:04;11.68;60.30
66144;SHT31;52947;50.842;6.084;2024-03-08T14:56:33;11.46;60.13
66144;SHT31;52947;50.842;6.084;2024-03-08T14:59:01;11.38;60.37
66144;SHT31;52947;50.842;6.084;2024-03-08T15:01:31;10.90;61.62
66144;SHT31;52947;50.842;6.084;2024-03-08T15:04:02;10.73;62.29
66144;SHT31;52947;50.842;6.084;2024-03-08T15:06:35;10.73;62.31
66144;SHT31;52947;50.842;6.084;2024-03-08T15:09:05;10.69;61.64
66144;SHT31;52947;50.842;6.084;2024-03-08T15:11:38;10.60;61.98
66144;SHT31;52947;50.842;6.084;2024-03-08T15:14:06;10.63;62.70
66144;SHT31;52947;50.842;6.084;2024-03-08T15:16:37;10.61;61.97
66144;SHT31;52947;50.842;6.084;2024-03-08T15:19:06;10.50;62.04
66144;SHT31;52947;50.842;6.084;2024-03-08T15:21:35;10.40;62.12
66144;SHT31;52947;50.842;6.084;2024-03-08T15:24:04;10.43;61.93
66144;SHT31;52947;50.842;6.084;2024-03-08T15:26:36;10.32;62.59
66144;SHT31;52947;50.842;6.084;2024-03-08T15:29:05;10.38;62.53
66144;SHT31;52947;50.842;6.084;2024-03-08T15:31:33;10.38;62.72
66144;SHT31;52947;50.842;6.084;2024-03-08T15:34:01;10.35;62.93
66144;SHT31;52947;50.842;6.084;2024-03-08T15:36:33;10.29;62.96
66144;SHT31;52947;50.842;6.084;2024-03-08T15:39:01;10.18;63.19
66144;SHT31;52947;50.842;6.084;2024-03-08T15:41:32;10.16;63.66
66144;SHT31;52947;50.842;6.084;2024-03-08T15:44:01;10.19;63.77
66144;SHT31;52947;50.842;6.084;2024-03-08T15:46:30;10.32;63.96
66144;SHT31;52947;50.842;6.084;2024-03-08T15:48:59;10.32;63.89
66144;SHT31;52947;50.842;6.084;2024-03-08T15:51:28;10.32;63.86
66144;SHT31;52947;50.842;6.084;2024-03-08T15:53:57;10.25;63.34